Aérodrome :
LOGIN :

S'inscrire | Disclaimer

   EN    FR    IT 

 










Légende :    VFR   VFR Marginal   IFR   IFR Intensif   IFR Très Intensif
Visi : 
Plafond : 
>= 8 km
>= 3000ft
5 à 8 km
1000 à 3000 ft
1500m à 5 km
500 à 1000 ft
800 à 1500m
200 à 500 ft
< 800m
< 200 ft
Symboles :   Orages  Brouillard  Fortes neiges  Fortes précipitations  Vent > 20 kt
SIGMETs :   Divers  Orages  Givrage  Turbulence  Onde Orograph.  Cendres Volcan.







- Altitude de l'aérodrome : 70 ft
- Code IATA : LEI


LEAM - Almeria

DERNIER METAR :
  • 241600Z 10013G23KT 070V140 CAVOK 32/17 Q1016

METARs EXPIRÉS :
  • 241530Z 11014KT 070V140 9999 FEW030 31/17 Q1016
  • 241500Z 11015KT 070V140 9999 FEW040 32/17 Q1016
  • 241430Z 10014KT 070V140 9999 FEW060 32/16 Q1016
  • 241400Z 09013KT 050V120 9999 FEW060 32/17 Q1016

TAF TAF LEAM
Valide du 24 à 15h jusqu'au 25 à 15h UTC


241400Z 2415/2515 09014KT CAVOK TX33/2415Z TN21/2506Z
BECMG 2420/2423 02006KT
BECMG 2507/2510 08014KT
Pas de NOTAMs connus pour ce terrain.



MET'MAP, la Météo Aéronautique d'un coup d'oeil ! - Copyright ORBIFLY Décembre 2007 - Disclaimer

ORBIFLY MET'MAP TEAM :

Programmation & Développement : Alexandra Zaïnal
Conception & Développement : Baudouin d'Aumeries
Co-Programmation & Développement : Marc-Olivier Méhu
Soutien technique & logistique : Manuel Goepfert

Contact : metmap@orbifly.com




SOURCES & CREDITS :

   NOAA